Time;durP1;ratioP1;P1;durP2;ratioP2;P2;SDS_P1;SDS_P2;PMS_P1;PMS_P2;Temp;Humidity;BMP_temperature;BMP_pressure;BME280_temperature;BME280_humidity;BME280_pressure;Samples;Min_cycle;Max_cycle;Signal;HPM_P1;HPM_P2
2022/12/16 00:02:20;;;;;;;56.20;25.23;;;-0.60;82.40;;;;;;9184768;19;20022;-84
2022/12/16 00:05:29;;;;;;;59.83;25.60;;;-0.50;82.40;;;;;;9180154;19;20081;-84
2022/12/16 00:08:42;;;;;;;56.03;24.05;;;-0.60;82.30;;;;;;9184445;19;20019;-84
2022/12/16 00:11:49;;;;;;;66.55;26.02;;;-0.60;82.30;;;;;;9183294;19;20011;-84
2022/12/16 00:15:00;;;;;;;61.65;24.33;;;-0.60;82.30;;;;;;9182806;19;20432;-84
2022/12/16 00:18:09;;;;;;;62.22;26.58;;;-0.60;82.40;;;;;;9182666;19;20028;-84
2022/12/16 00:21:27;;;;;;;52.30;23.88;;;-0.60;82.30;;;;;;9180153;19;20042;-84
2022/12/16 00:24:38;;;;;;;62.63;23.83;;;-0.60;82.30;;;;;;9179839;19;20891;-84
2022/12/16 00:27:53;;;;;;;56.25;23.77;;;-0.60;82.30;;;;;;9182284;19;20014;-84
2022/12/16 00:31:13;;;;;;;63.92;24.60;;;-0.60;82.30;;;;;;9183598;19;20078;-84
2022/12/16 00:34:21;;;;;;;60.50;26.08;;;-0.60;82.30;;;;;;9180885;19;20021;-84
2022/12/16 00:37:57;;;;;;;56.30;25.23;;;-0.50;82.40;;;;;;9178148;19;20017;-84
2022/12/16 00:41:11;;;;;;;57.50;24.20;;;-0.50;83.00;;;;;;9182410;19;20011;-84
2022/12/16 00:44:19;;;;;;;59.25;24.23;;;-0.50;82.40;;;;;;9181068;19;20014;-84
2022/12/16 00:47:26;;;;;;;49.45;22.45;;;-0.50;82.40;;;;;;9182648;19;20010;-84
2022/12/16 00:50:45;;;;;;;62.20;26.13;;;-0.50;82.40;;;;;;9181976;19;20100;-84
2022/12/16 00:53:56;;;;;;;57.17;23.25;;;-0.50;82.40;;;;;;9182062;19;20010;-84
2022/12/16 00:57:07;;;;;;;56.80;24.05;;;-0.50;82.30;;;;;;9181706;19;20017;-84
2022/12/16 01:00:19;;;;;;;57.67;23.52;;;-0.60;82.30;;;;;;9183240;19;20023;-84
2022/12/16 01:03:31;;;;;;;59.55;24.38;;;-0.50;82.30;;;;;;9180609;19;20787;-84
2022/12/16 01:07:01;;;;;;;59.83;24.42;;;-0.40;82.40;;;;;;9182503;19;20014;-84
2022/12/16 01:10:09;;;;;;;65.75;22.60;;;-0.40;82.40;;;;;;9181672;19;20362;-84
2022/12/16 01:13:32;;;;;;;;;;;-0.40;82.40;;;;;;9182360;19;20025;-84
2022/12/16 01:16:43;;;;;;;54.80;24.40;;;-0.40;82.30;;;;;;9183937;19;19914;-84
2022/12/16 01:20:06;;;;;;;55.10;23.42;;;-0.40;82.40;;;;;;9179305;19;20107;-84
2022/12/16 01:23:19;;;;;;;56.45;24.40;;;-0.30;82.40;;;;;;9178971;19;20015;-84
2022/12/16 01:26:28;;;;;;;60.17;24.88;;;-0.30;82.40;;;;;;9179277;19;20018;-84
2022/12/16 01:29:35;;;;;;;67.85;25.60;;;-0.30;82.40;;;;;;9182975;19;20018;-84
2022/12/16 01:32:47;;;;;;;53.72;24.05;;;-0.30;82.40;;;;;;9181213;19;20022;-84
2022/12/16 01:36:03;;;;;;;59.42;23.23;;;-0.30;82.50;;;;;;9182441;19;20464;-83
2022/12/16 01:39:29;;;;;;;53.83;23.45;;;-0.20;82.50;;;;;;9179160;19;20014;-84
2022/12/16 01:42:35;;;;;;;58.05;23.40;;;-0.20;82.50;;;;;;9180884;19;20017;-84
2022/12/16 01:45:55;;;;;;;;;;;-0.20;82.40;;;;;;9176171;19;20074;-84
2022/12/16 01:49:03;;;;;;;51.08;22.23;;;-0.20;82.40;;;;;;9182763;19;19923;-83
2022/12/16 01:52:29;;;;;;;56.97;22.88;;;-0.20;82.40;;;;;;9187259;19;20011;-84
2022/12/16 01:55:43;;;;;;;49.85;23.10;;;-0.20;82.30;;;;;;9187897;19;20034;-84
2022/12/16 01:58:57;;;;;;;56.28;22.95;;;-0.20;82.30;;;;;;9187737;19;20011;-84
2022/12/16 02:02:28;;;;;;;53.17;22.45;;;-0.10;82.40;;;;;;9188108;19;20329;-84
2022/12/16 02:05:39;;;;;;;52.60;22.15;;;-0.10;82.40;;;;;;9184705;19;20006;-84
2022/12/16 02:08:45;;;;;;;53.45;23.15;;;-0.10;82.40;;;;;;9186701;19;20014;-84
2022/12/16 02:12:18;;;;;;;50.10;22.83;;;-0.10;82.40;;;;;;9188334;19;20023;-84
2022/12/16 02:15:43;;;;;;;52.17;22.65;;;-0.10;82.30;;;;;;9185560;19;20018;-84
2022/12/16 02:19:15;;;;;;;55.03;23.40;;;0.00;82.40;;;;;;9184730;19;20022;-84
2022/12/16 02:22:41;;;;;;;55.28;22.13;;;0.00;82.30;;;;;;9185716;19;20018;-84
2022/12/16 02:26:21;;;;;;;53.00;25.02;;;0.00;82.30;;;;;;9182768;19;20010;-84
2022/12/16 02:30:05;;;;;;;55.78;24.60;;;0.00;82.40;;;;;;9186074;19;20014;-84
2022/12/16 02:33:40;;;;;;;50.75;22.95;;;0.00;82.30;;;;;;9187136;19;20011;-84
2022/12/16 02:36:58;;;;;;;55.17;22.02;;;0.00;82.30;;;;;;9185895;19;20082;-84
2022/12/16 02:40:09;;;;;;;49.95;22.00;;;0.00;82.30;;;;;;9187629;19;20098;-84
2022/12/16 02:43:54;;;;;;;62.00;23.52;;;0.00;82.30;;;;;;9186412;19;20021;-84
2022/12/16 02:47:01;;;;;;;51.95;22.42;;;0.00;82.40;;;;;;9186444;19;20459;-84
2022/12/16 02:50:23;;;;;;;55.83;24.20;;;0.20;82.40;;;;;;9186775;19;20482;-84
2022/12/16 02:53:35;;;;;;;49.53;23.60;;;0.10;82.40;;;;;;9185223;19;20010;-84
2022/12/16 02:56:51;;;;;;;51.42;22.30;;;0.10;82.40;;;;;;9186117;19;20382;-84
2022/12/16 03:00:11;;;;;;;48.92;20.60;;;0.10;82.40;;;;;;9186313;19;20074;-84
2022/12/16 03:03:33;;;;;;;57.08;24.90;;;0.10;82.40;;;;;;9186002;19;20038;-84
2022/12/16 03:06:49;;;;;;;55.53;24.00;;;0.10;82.50;;;;;;9186676;19;20021;-84
2022/12/16 03:10:01;;;;;;;52.83;22.27;;;0.20;82.50;;;;;;9186232;19;20011;-84
2022/12/16 03:13:15;;;;;;;50.38;21.02;;;0.10;82.40;;;;;;9186772;19;20019;-84
2022/12/16 03:16:34;;;;;;;49.67;22.90;;;0.20;82.50;;;;;;9184440;19;20014;-84
2022/12/16 03:19:45;;;;;;;51.58;22.70;;;0.20;82.50;;;;;;9186211;19;20034;-84
2022/12/16 03:23:08;;;;;;;52.95;23.10;;;0.10;82.50;;;;;;9185283;19;20336;-84
2022/12/16 03:26:22;;;;;;;56.70;23.83;;;0.20;82.60;;;;;;9180389;19;20006;-84
2022/12/16 03:29:33;;;;;;;53.45;22.92;;;0.20;82.50;;;;;;9183111;19;20017;-84
2022/12/16 03:32:41;;;;;;;53.83;22.65;;;0.20;82.60;;;;;;9182322;19;20002;-84
2022/12/16 03:35:58;;;;;;;53.88;22.83;;;0.20;82.60;;;;;;9184905;19;20044;-84
2022/12/16 03:39:09;;;;;;;58.78;23.85;;;0.20;82.60;;;;;;9184861;19;20016;-84
2022/12/16 03:42:29;;;;;;;54.05;22.17;;;0.20;82.60;;;;;;9183788;19;20007;-84
2022/12/16 03:49:11;;;;;;;54.60;24.23;;;0.30;82.60;;;;;;9183681;19;20101;-84
2022/12/16 03:52:28;;;;;;;52.90;24.17;;;0.30;82.60;;;;;;9185309;19;20021;-84
2022/12/16 03:55:40;;;;;;;62.22;24.05;;;0.20;82.60;;;;;;9184231;19;20018;-84
2022/12/16 03:58:48;;;;;;;48.38;22.98;;;0.20;82.60;;;;;;9183058;19;20028;-84
2022/12/16 04:01:58;;;;;;;56.85;23.80;;;0.30;82.70;;;;;;9185353;19;20021;-84
2022/12/16 04:05:18;;;;;;;52.13;22.92;;;0.20;82.70;;;;;;9182592;19;20018;-84
2022/12/16 04:09:08;;;;;;;50.92;22.67;;;0.30;82.70;;;;;;9183680;19;20021;-84
2022/12/16 04:26:14;;;;;;;51.97;24.23;;;0.30;82.70;;;;;;9179423;19;20014;-84
2022/12/16 04:30:17;;;;;;;60.88;24.30;;;0.30;82.70;;;;;;9182885;19;20014;-84
